sensor_id;sensor_type;location;lat;lon;timestamp;P1;durP1;ratioP1;P2;durP2;ratioP2
73693;SDS011;61997;53.974;11.670;2023-11-22T00:00:28;18.65;;;11.05;;
73693;SDS011;61997;53.974;11.670;2023-11-22T00:02:54;17.45;;;10.07;;
73693;SDS011;61997;53.974;11.670;2023-11-22T00:05:19;17.17;;;10.50;;
73693;SDS011;61997;53.974;11.670;2023-11-22T00:07:46;19.00;;;10.43;;
73693;SDS011;61997;53.974;11.670;2023-11-22T00:10:12;14.60;;;9.70;;
73693;SDS011;61997;53.974;11.670;2023-11-22T00:12:38;18.40;;;10.73;;
73693;SDS011;61997;53.974;11.670;2023-11-22T00:15:04;14.68;;;8.90;;
73693;SDS011;61997;53.974;11.670;2023-11-22T00:17:31;15.38;;;9.52;;
73693;SDS011;61997;53.974;11.670;2023-11-22T00:19:58;14.98;;;9.55;;
73693;SDS011;61997;53.974;11.670;2023-11-22T00:22:25;18.35;;;9.60;;
73693;SDS011;61997;53.974;11.670;2023-11-22T00:24:53;15.90;;;9.75;;
73693;SDS011;61997;53.974;11.670;2023-11-22T00:27:18;15.80;;;9.30;;
73693;SDS011;61997;53.974;11.670;2023-11-22T00:29:44;15.65;;;9.02;;
73693;SDS011;61997;53.974;11.670;2023-11-22T00:32:11;15.35;;;8.48;;
73693;SDS011;61997;53.974;11.670;2023-11-22T00:34:37;17.52;;;8.93;;
73693;SDS011;61997;53.974;11.670;2023-11-22T00:37:02;14.27;;;9.02;;
73693;SDS011;61997;53.974;11.670;2023-11-22T00:39:28;15.65;;;9.35;;
73693;SDS011;61997;53.974;11.670;2023-11-22T00:41:53;13.75;;;7.75;;
73693;SDS011;61997;53.974;11.670;2023-11-22T00:44:18;16.10;;;8.25;;
73693;SDS011;61997;53.974;11.670;2023-11-22T00:46:44;13.82;;;8.10;;
73693;SDS011;61997;53.974;11.670;2023-11-22T00:49:11;17.60;;;8.65;;
73693;SDS011;61997;53.974;11.670;2023-11-22T00:51:38;14.13;;;8.90;;
73693;SDS011;61997;53.974;11.670;2023-11-22T00:54:03;17.13;;;9.75;;
73693;SDS011;61997;53.974;11.670;2023-11-22T00:56:29;16.08;;;8.15;;
73693;SDS011;61997;53.974;11.670;2023-11-22T00:58:55;11.45;;;8.18;;
73693;SDS011;61997;53.974;11.670;2023-11-22T01:01:24;13.93;;;8.05;;
73693;SDS011;61997;53.974;11.670;2023-11-22T01:03:50;13.35;;;7.72;;
73693;SDS011;61997;53.974;11.670;2023-11-22T01:06:15;13.70;;;7.93;;
73693;SDS011;61997;53.974;11.670;2023-11-22T01:08:43;11.18;;;7.57;;
73693;SDS011;61997;53.974;11.670;2023-11-22T01:11:08;13.88;;;7.97;;
73693;SDS011;61997;53.974;11.670;2023-11-22T01:13:34;13.63;;;8.45;;
73693;SDS011;61997;53.974;11.670;2023-11-22T01:16:06;15.38;;;8.35;;
73693;SDS011;61997;53.974;11.670;2023-11-22T01:18:32;13.48;;;7.72;;
73693;SDS011;61997;53.974;11.670;2023-11-22T01:20:57;12.75;;;7.60;;
73693;SDS011;61997;53.974;11.670;2023-11-22T01:23:23;13.35;;;7.22;;
73693;SDS011;61997;53.974;11.670;2023-11-22T01:25:48;14.07;;;7.60;;
73693;SDS011;61997;53.974;11.670;2023-11-22T01:28:15;13.23;;;7.93;;
73693;SDS011;61997;53.974;11.670;2023-11-22T01:30:42;10.25;;;7.32;;
73693;SDS011;61997;53.974;11.670;2023-11-22T01:33:10;13.80;;;7.60;;
73693;SDS011;61997;53.974;11.670;2023-11-22T01:35:36;10.93;;;6.75;;
73693;SDS011;61997;53.974;11.670;2023-11-22T01:38:02;14.13;;;7.28;;
73693;SDS011;61997;53.974;11.670;2023-11-22T01:40:29;12.38;;;7.43;;
73693;SDS011;61997;53.974;11.670;2023-11-22T01:42:55;11.95;;;7.10;;
73693;SDS011;61997;53.974;11.670;2023-11-22T01:45:21;13.30;;;8.15;;
73693;SDS011;61997;53.974;11.670;2023-11-22T01:47:47;8.95;;;6.43;;
73693;SDS011;61997;53.974;11.670;2023-11-22T01:50:12;9.65;;;6.82;;
73693;SDS011;61997;53.974;11.670;2023-11-22T01:52:39;11.70;;;7.38;;
73693;SDS011;61997;53.974;11.670;2023-11-22T01:55:05;10.88;;;6.60;;
73693;SDS011;61997;53.974;11.670;2023-11-22T01:57:32;11.32;;;6.43;;
73693;SDS011;61997;53.974;11.670;2023-11-22T02:00:00;12.50;;;6.65;;
73693;SDS011;61997;53.974;11.670;2023-11-22T02:02:26;12.10;;;7.35;;
73693;SDS011;61997;53.974;11.670;2023-11-22T02:04:51;11.48;;;5.85;;
73693;SDS011;61997;53.974;11.670;2023-11-22T02:07:17;10.23;;;6.50;;
73693;SDS011;61997;53.974;11.670;2023-11-22T02:09:42;11.05;;;6.35;;
73693;SDS011;61997;53.974;11.670;2023-11-22T02:12:07;11.40;;;6.78;;
73693;SDS011;61997;53.974;11.670;2023-11-22T02:14:33;11.10;;;6.25;;
73693;SDS011;61997;53.974;11.670;2023-11-22T02:16:59;11.30;;;6.25;;
73693;SDS011;61997;53.974;11.670;2023-11-22T02:19:25;11.93;;;6.35;;
73693;SDS011;61997;53.974;11.670;2023-11-22T02:21:51;10.32;;;5.75;;
73693;SDS011;61997;53.974;11.670;2023-11-22T02:24:17;11.25;;;5.88;;
73693;SDS011;61997;53.974;11.670;2023-11-22T02:26:45;11.02;;;6.18;;
73693;SDS011;61997;53.974;11.670;2023-11-22T02:29:11;9.63;;;5.72;;
73693;SDS011;61997;53.974;11.670;2023-11-22T02:31:38;12.10;;;6.18;;
73693;SDS011;61997;53.974;11.670;2023-11-22T02:34:04;9.68;;;5.55;;
73693;SDS011;61997;53.974;11.670;2023-11-22T02:36:30;9.63;;;6.20;;
73693;SDS011;61997;53.974;11.670;2023-11-22T02:38:56;9.60;;;5.25;;
73693;SDS011;61997;53.974;11.670;2023-11-22T02:41:21;10.02;;;5.75;;
73693;SDS011;61997;53.974;11.670;2023-11-22T02:43:47;9.00;;;5.28;;
73693;SDS011;61997;53.974;11.670;2023-11-22T02:46:12;9.63;;;5.30;;
73693;SDS011;61997;53.974;11.670;2023-11-22T02:48:39;9.10;;;5.68;;
73693;SDS011;61997;53.974;11.670;2023-11-22T02:51:04;10.05;;;5.82;;
73693;SDS011;61997;53.974;11.670;2023-11-22T02:53:31;10.75;;;5.88;;
73693;SDS011;61997;53.974;11.670;2023-11-22T02:56:00;8.15;;;4.65;;
73693;SDS011;61997;53.974;11.670;2023-11-22T02:58:27;9.60;;;5.40;;
73693;SDS011;61997;53.974;11.670;2023-11-22T03:00:56;8.93;;;5.53;;
73693;SDS011;61997;53.974;11.670;2023-11-22T03:03:22;8.45;;;4.88;;
73693;SDS011;61997;53.974;11.670;2023-11-22T03:05:49;9.85;;;4.85;;
73693;SDS011;61997;53.974;11.670;2023-11-22T03:08:15;7.03;;;4.97;;
73693;SDS011;61997;53.974;11.670;2023-11-22T03:10:41;8.60;;;5.20;;
73693;SDS011;61997;53.974;11.670;2023-11-22T03:13:07;8.43;;;4.93;;
73693;SDS011;61997;53.974;11.670;2023-11-22T03:15:33;8.65;;;4.40;;
73693;SDS011;61997;53.974;11.670;2023-11-22T03:17:59;8.45;;;4.93;;
73693;SDS011;61997;53.974;11.670;2023-11-22T03:20:25;7.63;;;4.75;;
73693;SDS011;61997;53.974;11.670;2023-11-22T03:22:50;7.97;;;4.80;;
73693;SDS011;61997;53.974;11.670;2023-11-22T03:25:15;10.43;;;5.05;;
73693;SDS011;61997;53.974;11.670;2023-11-22T03:27:41;6.28;;;3.80;;
73693;SDS011;61997;53.974;11.670;2023-11-22T03:30:06;8.13;;;4.60;;
73693;SDS011;61997;53.974;11.670;2023-11-22T03:32:39;7.28;;;3.78;;
73693;SDS011;61997;53.974;11.670;2023-11-22T03:35:08;7.88;;;4.75;;
73693;SDS011;61997;53.974;11.670;2023-11-22T03:37:34;6.32;;;4.40;;
73693;SDS011;61997;53.974;11.670;2023-11-22T03:39:59;7.90;;;4.35;;
73693;SDS011;61997;53.974;11.670;2023-11-22T03:42:25;5.70;;;4.18;;
73693;SDS011;61997;53.974;11.670;2023-11-22T03:44:51;8.65;;;4.57;;
73693;SDS011;61997;53.974;11.670;2023-11-22T03:47:18;6.20;;;4.13;;
73693;SDS011;61997;53.974;11.670;2023-11-22T03:49:43;7.80;;;4.35;;
73693;SDS011;61997;53.974;11.670;2023-11-22T03:52:12;6.20;;;4.20;;
73693;SDS011;61997;53.974;11.670;2023-11-22T03:54:39;6.57;;;3.55;;
73693;SDS011;61997;53.974;11.670;2023-11-22T03:57:04;6.70;;;4.00;;
73693;SDS011;61997;53.974;11.670;2023-11-22T03:59:30;6.93;;;3.97;;
73693;SDS011;61997;53.974;11.670;2023-11-22T04:01:55;6.32;;;3.85;;
73693;SDS011;61997;53.974;11.670;2023-11-22T04:04:21;7.82;;;4.40;;
73693;SDS011;61997;53.974;11.670;2023-11-22T04:06:46;8.00;;;3.75;;
73693;SDS011;61997;53.974;11.670;2023-11-22T04:09:12;6.03;;;3.53;;
73693;SDS011;61997;53.974;11.670;2023-11-22T04:11:38;5.35;;;3.25;;
73693;SDS011;61997;53.974;11.670;2023-11-22T04:14:04;7.22;;;3.90;;
73693;SDS011;61997;53.974;11.670;2023-11-22T04:16:29;6.38;;;3.70;;
73693;SDS011;61997;53.974;11.670;2023-11-22T04:18:55;6.03;;;3.45;;
73693;SDS011;61997;53.974;11.670;2023-11-22T04:21:20;6.20;;;3.65;;
73693;SDS011;61997;53.974;11.670;2023-11-22T04:23:45;7.07;;;3.67;;
73693;SDS011;61997;53.974;11.670;2023-11-22T04:26:11;4.45;;;2.97;;
73693;SDS011;61997;53.974;11.670;2023-11-22T04:28:36;6.90;;;3.40;;
73693;SDS011;61997;53.974;11.670;2023-11-22T04:31:01;6.22;;;3.42;;
73693;SDS011;61997;53.974;11.670;2023-11-22T04:33:27;7.85;;;3.42;;
73693;SDS011;61997;53.974;11.670;2023-11-22T04:35:55;6.53;;;3.20;;
73693;SDS011;61997;53.974;11.670;2023-11-22T04:38:21;5.43;;;3.45;;
73693;SDS011;61997;53.974;11.670;2023-11-22T04:40:46;6.53;;;3.30;;
73693;SDS011;61997;53.974;11.670;2023-11-22T04:43:13;5.47;;;3.78;;
73693;SDS011;61997;53.974;11.670;2023-11-22T04:45:38;5.65;;;3.35;;
73693;SDS011;61997;53.974;11.670;2023-11-22T04:48:04;4.65;;;3.13;;
73693;SDS011;61997;53.974;11.670;2023-11-22T04:50:29;5.45;;;3.08;;
73693;SDS011;61997;53.974;11.670;2023-11-22T04:52:55;5.35;;;3.22;;
73693;SDS011;61997;53.974;11.670;2023-11-22T04:55:20;5.18;;;3.13;;
73693;SDS011;61997;53.974;11.670;2023-11-22T04:57:48;5.18;;;3.42;;
73693;SDS011;61997;53.974;11.670;2023-11-22T05:00:14;5.25;;;3.22;;
73693;SDS011;61997;53.974;11.670;2023-11-22T05:02:39;5.53;;;2.80;;
73693;SDS011;61997;53.974;11.670;2023-11-22T05:05:05;5.95;;;3.15;;
73693;SDS011;61997;53.974;11.670;2023-11-22T05:07:31;5.22;;;3.13;;
73693;SDS011;61997;53.974;11.670;2023-11-22T05:09:57;5.05;;;3.10;;
73693;SDS011;61997;53.974;11.670;2023-11-22T05:12:22;4.97;;;3.00;;
73693;SDS011;61997;53.974;11.670;2023-11-22T05:14:47;6.50;;;2.80;;
73693;SDS011;61997;53.974;11.670;2023-11-22T05:17:13;5.22;;;2.63;;
73693;SDS011;61997;53.974;11.670;2023-11-22T05:19:38;4.32;;;2.38;;
73693;SDS011;61997;53.974;11.670;2023-11-22T05:22:04;4.40;;;2.60;;
73693;SDS011;61997;53.974;11.670;2023-11-22T05:24:29;6.55;;;3.03;;
73693;SDS011;61997;53.974;11.670;2023-11-22T05:26:55;6.13;;;2.72;;
73693;SDS011;61997;53.974;11.670;2023-11-22T05:29:20;4.63;;;2.70;;
73693;SDS011;61997;53.974;11.670;2023-11-22T05:31:46;4.93;;;2.78;;
73693;SDS011;61997;53.974;11.670;2023-11-22T05:34:12;4.05;;;2.53;;
73693;SDS011;61997;53.974;11.670;2023-11-22T05:36:38;3.85;;;2.17;;
73693;SDS011;61997;53.974;11.670;2023-11-22T05:39:03;4.20;;;2.55;;
73693;SDS011;61997;53.974;11.670;2023-11-22T05:41:29;4.68;;;2.42;;
73693;SDS011;61997;53.974;11.670;2023-11-22T05:43:54;5.28;;;2.20;;
73693;SDS011;61997;53.974;11.670;2023-11-22T05:46:21;4.90;;;2.40;;
73693;SDS011;61997;53.974;11.670;2023-11-22T05:48:56;4.05;;;2.53;;
73693;SDS011;61997;53.974;11.670;2023-11-22T05:51:21;3.92;;;2.72;;
73693;SDS011;61997;53.974;11.670;2023-11-22T05:53:47;4.30;;;2.80;;
73693;SDS011;61997;53.974;11.670;2023-11-22T05:56:12;3.42;;;1.98;;
73693;SDS011;61997;53.974;11.670;2023-11-22T05:58:38;4.85;;;2.30;;
73693;SDS011;61997;53.974;11.670;2023-11-22T06:01:07;4.10;;;2.53;;
73693;SDS011;61997;53.974;11.670;2023-11-22T06:03:34;3.53;;;2.20;;
73693;SDS011;61997;53.974;11.670;2023-11-22T06:06:00;3.47;;;1.88;;
73693;SDS011;61997;53.974;11.670;2023-11-22T06:08:25;4.32;;;2.40;;
73693;SDS011;61997;53.974;11.670;2023-11-22T06:10:51;3.67;;;2.25;;
73693;SDS011;61997;53.974;11.670;2023-11-22T06:13:18;2.75;;;1.73;;
73693;SDS011;61997;53.974;11.670;2023-11-22T06:15:43;3.92;;;1.90;;
73693;SDS011;61997;53.974;11.670;2023-11-22T06:18:09;3.58;;;2.05;;
73693;SDS011;61997;53.974;11.670;2023-11-22T06:20:34;4.03;;;2.15;;
73693;SDS011;61997;53.974;11.670;2023-11-22T06:23:00;2.92;;;1.80;;
73693;SDS011;61997;53.974;11.670;2023-11-22T06:25:25;4.50;;;2.28;;
73693;SDS011;61997;53.974;11.670;2023-11-22T06:27:51;4.13;;;1.73;;
73693;SDS011;61997;53.974;11.670;2023-11-22T06:30:16;4.07;;;1.80;;
73693;SDS011;61997;53.974;11.670;2023-11-22T06:32:41;4.00;;;2.20;;
73693;SDS011;61997;53.974;11.670;2023-11-22T06:35:10;4.18;;;1.90;;
73693;SDS011;61997;53.974;11.670;2023-11-22T06:37:39;3.22;;;1.90;;
73693;SDS011;61997;53.974;11.670;2023-11-22T06:40:05;3.35;;;1.80;;
73693;SDS011;61997;53.974;11.670;2023-11-22T06:42:31;3.38;;;1.98;;
73693;SDS011;61997;53.974;11.670;2023-11-22T06:44:56;4.15;;;2.00;;
73693;SDS011;61997;53.974;11.670;2023-11-22T06:47:25;3.90;;;1.88;;
73693;SDS011;61997;53.974;11.670;2023-11-22T06:49:50;3.83;;;1.90;;
73693;SDS011;61997;53.974;11.670;2023-11-22T06:52:16;2.88;;;1.90;;
73693;SDS011;61997;53.974;11.670;2023-11-22T06:54:42;4.20;;;1.75;;
73693;SDS011;61997;53.974;11.670;2023-11-22T06:57:07;2.65;;;1.63;;
73693;SDS011;61997;53.974;11.670;2023-11-22T06:59:32;3.03;;;1.75;;
73693;SDS011;61997;53.974;11.670;2023-11-22T07:01:58;3.08;;;1.80;;
73693;SDS011;61997;53.974;11.670;2023-11-22T07:04:23;2.70;;;1.70;;
73693;SDS011;61997;53.974;11.670;2023-11-22T07:06:49;3.22;;;1.40;;
73693;SDS011;61997;53.974;11.670;2023-11-22T07:09:15;3.53;;;1.77;;
73693;SDS011;61997;53.974;11.670;2023-11-22T07:11:40;2.53;;;1.70;;
73693;SDS011;61997;53.974;11.670;2023-11-22T07:14:05;4.05;;;1.88;;
73693;SDS011;61997;53.974;11.670;2023-11-22T07:16:32;3.20;;;1.77;;
73693;SDS011;61997;53.974;11.670;2023-11-22T07:18:58;2.88;;;1.58;;
73693;SDS011;61997;53.974;11.670;2023-11-22T07:21:25;2.70;;;1.70;;
73693;SDS011;61997;53.974;11.670;2023-11-22T07:23:50;2.90;;;1.52;;
73693;SDS011;61997;53.974;11.670;2023-11-22T07:26:16;3.92;;;1.63;;
73693;SDS011;61997;53.974;11.670;2023-11-22T07:28:41;2.75;;;1.67;;
73693;SDS011;61997;53.974;11.670;2023-11-22T07:31:07;2.53;;;1.92;;
73693;SDS011;61997;53.974;11.670;2023-11-22T07:33:34;4.03;;;1.90;;
73693;SDS011;61997;53.974;11.670;2023-11-22T07:36:00;4.80;;;2.13;;
73693;SDS011;61997;53.974;11.670;2023-11-22T07:38:25;5.35;;;2.15;;
73693;SDS011;61997;53.974;11.670;2023-11-22T07:40:52;4.13;;;2.00;;
73693;SDS011;61997;53.974;11.670;2023-11-22T07:43:18;6.32;;;2.28;;
73693;SDS011;61997;53.974;11.670;2023-11-22T07:45:43;4.75;;;2.03;;
73693;SDS011;61997;53.974;11.670;2023-11-22T07:48:10;4.25;;;2.20;;
73693;SDS011;61997;53.974;11.670;2023-11-22T07:50:37;3.17;;;1.85;;
73693;SDS011;61997;53.974;11.670;2023-11-22T07:53:04;3.38;;;2.30;;
73693;SDS011;61997;53.974;11.670;2023-11-22T07:55:30;4.38;;;2.58;;
73693;SDS011;61997;53.974;11.670;2023-11-22T07:57:56;3.25;;;1.55;;
73693;SDS011;61997;53.974;11.670;2023-11-22T08:00:22;3.25;;;2.20;;
73693;SDS011;61997;53.974;11.670;2023-11-22T08:02:48;4.00;;;2.15;;
73693;SDS011;61997;53.974;11.670;2023-11-22T08:05:14;4.25;;;2.40;;
73693;SDS011;61997;53.974;11.670;2023-11-22T08:07:41;4.22;;;2.30;;
73693;SDS011;61997;53.974;11.670;2023-11-22T08:10:09;3.30;;;2.00;;
73693;SDS011;61997;53.974;11.670;2023-11-22T08:12:47;4.35;;;2.50;;
73693;SDS011;61997;53.974;11.670;2023-11-22T08:15:15;4.25;;;2.28;;
73693;SDS011;61997;53.974;11.670;2023-11-22T08:17:41;4.45;;;2.33;;
73693;SDS011;61997;53.974;11.670;2023-11-22T08:20:07;6.88;;;2.35;;
73693;SDS011;61997;53.974;11.670;2023-11-22T08:22:41;3.53;;;2.30;;
73693;SDS011;61997;53.974;11.670;2023-11-22T08:25:07;4.15;;;2.65;;
73693;SDS011;61997;53.974;11.670;2023-11-22T08:27:33;5.38;;;2.50;;
73693;SDS011;61997;53.974;11.670;2023-11-22T08:29:59;4.28;;;2.28;;
73693;SDS011;61997;53.974;11.670;2023-11-22T08:32:30;5.30;;;2.22;;
73693;SDS011;61997;53.974;11.670;2023-11-22T08:34:56;5.32;;;2.60;;
73693;SDS011;61997;53.974;11.670;2023-11-22T08:37:21;4.72;;;1.75;;
73693;SDS011;61997;53.974;11.670;2023-11-22T08:39:47;4.90;;;2.55;;
73693;SDS011;61997;53.974;11.670;2023-11-22T08:42:13;5.18;;;2.60;;
73693;SDS011;61997;53.974;11.670;2023-11-22T08:44:39;4.88;;;2.60;;
73693;SDS011;61997;53.974;11.670;2023-11-22T08:47:04;4.38;;;2.40;;
73693;SDS011;61997;53.974;11.670;2023-11-22T08:49:30;3.15;;;2.15;;
73693;SDS011;61997;53.974;11.670;2023-11-22T08:51:56;5.32;;;2.13;;
73693;SDS011;61997;53.974;11.670;2023-11-22T08:54:24;4.65;;;2.45;;
73693;SDS011;61997;53.974;11.670;2023-11-22T08:56:49;4.07;;;2.13;;
73693;SDS011;61997;53.974;11.670;2023-11-22T08:59:15;5.38;;;2.47;;
73693;SDS011;61997;53.974;11.670;2023-11-22T09:01:41;3.30;;;2.33;;
73693;SDS011;61997;53.974;11.670;2023-11-22T09:04:10;4.53;;;2.53;;
73693;SDS011;61997;53.974;11.670;2023-11-22T09:06:36;4.10;;;2.42;;
73693;SDS011;61997;53.974;11.670;2023-11-22T09:09:02;3.97;;;2.03;;
73693;SDS011;61997;53.974;11.670;2023-11-22T09:11:27;4.85;;;2.58;;
73693;SDS011;61997;53.974;11.670;2023-11-22T09:13:53;4.32;;;2.42;;
73693;SDS011;61997;53.974;11.670;2023-11-22T09:16:22;4.50;;;2.83;;
73693;SDS011;61997;53.974;11.670;2023-11-22T09:18:50;4.63;;;2.53;;
73693;SDS011;61997;53.974;11.670;2023-11-22T09:21:16;4.53;;;2.25;;
73693;SDS011;61997;53.974;11.670;2023-11-22T09:23:42;4.32;;;2.15;;
73693;SDS011;61997;53.974;11.670;2023-11-22T09:26:08;4.90;;;2.70;;
73693;SDS011;61997;53.974;11.670;2023-11-22T09:28:33;3.90;;;2.30;;
73693;SDS011;61997;53.974;11.670;2023-11-22T09:30:58;4.57;;;2.35;;
73693;SDS011;61997;53.974;11.670;2023-11-22T09:33:31;4.85;;;2.45;;
73693;SDS011;61997;53.974;11.670;2023-11-22T09:35:56;5.53;;;2.38;;
73693;SDS011;61997;53.974;11.670;2023-11-22T09:38:23;3.88;;;2.47;;
73693;SDS011;61997;53.974;11.670;2023-11-22T09:40:49;5.10;;;2.50;;
73693;SDS011;61997;53.974;11.670;2023-11-22T09:43:15;4.50;;;2.80;;
73693;SDS011;61997;53.974;11.670;2023-11-22T09:45:42;6.90;;;3.03;;
73693;SDS011;61997;53.974;11.670;2023-11-22T09:48:19;3.90;;;2.58;;
73693;SDS011;61997;53.974;11.670;2023-11-22T09:53:31;5.00;;;2.78;;
73693;SDS011;61997;53.974;11.670;2023-11-22T09:55:58;4.28;;;2.45;;
73693;SDS011;61997;53.974;11.670;2023-11-22T09:58:26;5.30;;;2.45;;
73693;SDS011;61997;53.974;11.670;2023-11-22T10:00:56;3.35;;;2.25;;
73693;SDS011;61997;53.974;11.670;2023-11-22T10:03:21;4.00;;;2.63;;
73693;SDS011;61997;53.974;11.670;2023-11-22T10:05:49;4.57;;;2.20;;
73693;SDS011;61997;53.974;11.670;2023-11-22T10:08:14;5.65;;;2.38;;
73693;SDS011;61997;53.974;11.670;2023-11-22T10:10:41;4.40;;;2.28;;
73693;SDS011;61997;53.974;11.670;2023-11-22T10:13:10;5.28;;;2.65;;
73693;SDS011;61997;53.974;11.670;2023-11-22T10:15:37;4.32;;;2.45;;
73693;SDS011;61997;53.974;11.670;2023-11-22T10:18:03;5.03;;;2.50;;
73693;SDS011;61997;53.974;11.670;2023-11-22T10:20:37;4.63;;;2.17;;
73693;SDS011;61997;53.974;11.670;2023-11-22T10:23:03;5.65;;;2.42;;
73693;SDS011;61997;53.974;11.670;2023-11-22T10:25:29;4.20;;;2.10;;
73693;SDS011;61997;53.974;11.670;2023-11-22T10:27:57;4.03;;;2.63;;
73693;SDS011;61997;53.974;11.670;2023-11-22T10:30:23;4.20;;;2.28;;
73693;SDS011;61997;53.974;11.670;2023-11-22T10:32:51;4.78;;;2.40;;
73693;SDS011;61997;53.974;11.670;2023-11-22T10:35:18;3.03;;;2.40;;
73693;SDS011;61997;53.974;11.670;2023-11-22T10:37:47;4.82;;;2.35;;
73693;SDS011;61997;53.974;11.670;2023-11-22T10:40:13;3.22;;;2.20;;
73693;SDS011;61997;53.974;11.670;2023-11-22T10:42:42;4.05;;;2.22;;
73693;SDS011;61997;53.974;11.670;2023-11-22T10:45:11;3.90;;;2.20;;
73693;SDS011;61997;53.974;11.670;2023-11-22T10:47:37;4.35;;;2.47;;
73693;SDS011;61997;53.974;11.670;2023-11-22T10:50:07;3.28;;;2.42;;
73693;SDS011;61997;53.974;11.670;2023-11-22T10:52:35;3.95;;;1.92;;
73693;SDS011;61997;53.974;11.670;2023-11-22T10:55:03;4.47;;;2.28;;
73693;SDS011;61997;53.974;11.670;2023-11-22T10:57:31;3.92;;;2.50;;
73693;SDS011;61997;53.974;11.670;2023-11-22T10:59:57;3.88;;;2.10;;
73693;SDS011;61997;53.974;11.670;2023-11-22T11:02:26;4.78;;;2.40;;
73693;SDS011;61997;53.974;11.670;2023-11-22T11:04:55;4.43;;;2.65;;
73693;SDS011;61997;53.974;11.670;2023-11-22T11:07:25;4.15;;;2.13;;
73693;SDS011;61997;53.974;11.670;2023-11-22T11:09:52;4.57;;;2.40;;
73693;SDS011;61997;53.974;11.670;2023-11-22T11:12:19;4.28;;;2.28;;
73693;SDS011;61997;53.974;11.670;2023-11-22T11:14:46;4.25;;;2.10;;
73693;SDS011;61997;53.974;11.670;2023-11-22T11:17:12;4.50;;;2.03;;
73693;SDS011;61997;53.974;11.670;2023-11-22T11:19:39;4.53;;;2.15;;
73693;SDS011;61997;53.974;11.670;2023-11-22T11:22:07;3.33;;;1.90;;
73693;SDS011;61997;53.974;11.670;2023-11-22T11:27:06;3.55;;;2.42;;
73693;SDS011;61997;53.974;11.670;2023-11-22T11:29:35;3.42;;;2.20;;
73693;SDS011;61997;53.974;11.670;2023-11-22T11:32:09;4.38;;;2.22;;
73693;SDS011;61997;53.974;11.670;2023-11-22T11:34:48;4.57;;;1.83;;
73693;SDS011;61997;53.974;11.670;2023-11-22T11:39:45;4.43;;;1.98;;
73693;SDS011;61997;53.974;11.670;2023-11-22T11:42:11;3.67;;;1.95;;
73693;SDS011;61997;53.974;11.670;2023-11-22T11:44:39;4.82;;;2.63;;
73693;SDS011;61997;53.974;11.670;2023-11-22T11:47:16;5.15;;;2.08;;
73693;SDS011;61997;53.974;11.670;2023-11-22T11:49:43;4.38;;;1.98;;
73693;SDS011;61997;53.974;11.670;2023-11-22T11:52:09;3.83;;;1.88;;
73693;SDS011;61997;53.974;11.670;2023-11-22T11:54:35;4.80;;;2.15;;
73693;SDS011;61997;53.974;11.670;2023-11-22T11:57:01;3.92;;;1.98;;
73693;SDS011;61997;53.974;11.670;2023-11-22T11:59:27;3.63;;;2.22;;
73693;SDS011;61997;53.974;11.670;2023-11-22T12:01:55;3.83;;;2.17;;
73693;SDS011;61997;53.974;11.670;2023-11-22T12:04:22;3.42;;;2.13;;
73693;SDS011;61997;53.974;11.670;2023-11-22T12:06:49;4.43;;;2.10;;
73693;SDS011;61997;53.974;11.670;2023-11-22T12:09:21;3.10;;;1.92;;
73693;SDS011;61997;53.974;11.670;2023-11-22T12:11:49;4.95;;;2.30;;
73693;SDS011;61997;53.974;11.670;2023-11-22T12:14:14;5.38;;;2.35;;
73693;SDS011;61997;53.974;11.670;2023-11-22T12:16:40;3.20;;;1.73;;
73693;SDS011;61997;53.974;11.670;2023-11-22T12:19:07;4.13;;;1.80;;
73693;SDS011;61997;53.974;11.670;2023-11-22T12:21:36;4.88;;;1.88;;
73693;SDS011;61997;53.974;11.670;2023-11-22T12:24:02;3.08;;;2.00;;
73693;SDS011;61997;53.974;11.670;2023-11-22T12:26:31;3.17;;;2.17;;
73693;SDS011;61997;53.974;11.670;2023-11-22T12:28:58;3.80;;;1.83;;
73693;SDS011;61997;53.974;11.670;2023-11-22T12:31:23;2.35;;;1.52;;
73693;SDS011;61997;53.974;11.670;2023-11-22T12:33:49;2.70;;;1.55;;
73693;SDS011;61997;53.974;11.670;2023-11-22T12:36:15;4.10;;;2.08;;
73693;SDS011;61997;53.974;11.670;2023-11-22T12:38:42;3.40;;;1.90;;
73693;SDS011;61997;53.974;11.670;2023-11-22T12:41:07;3.10;;;1.90;;
73693;SDS011;61997;53.974;11.670;2023-11-22T12:43:34;3.13;;;1.90;;
73693;SDS011;61997;53.974;11.670;2023-11-22T12:46:03;3.40;;;1.60;;
73693;SDS011;61997;53.974;11.670;2023-11-22T12:48:31;2.92;;;1.83;;
73693;SDS011;61997;53.974;11.670;2023-11-22T12:50:58;2.95;;;1.60;;
73693;SDS011;61997;53.974;11.670;2023-11-22T12:53:24;3.80;;;1.60;;
73693;SDS011;61997;53.974;11.670;2023-11-22T12:55:51;2.80;;;1.70;;
73693;SDS011;61997;53.974;11.670;2023-11-22T12:58:26;3.53;;;1.70;;
73693;SDS011;61997;53.974;11.670;2023-11-22T13:00:53;3.33;;;1.60;;
73693;SDS011;61997;53.974;11.670;2023-11-22T13:03:23;2.80;;;1.60;;
73693;SDS011;61997;53.974;11.670;2023-11-22T13:05:50;3.28;;;1.65;;
73693;SDS011;61997;53.974;11.670;2023-11-22T13:08:19;2.40;;;1.92;;
73693;SDS011;61997;53.974;11.670;2023-11-22T13:10:48;3.15;;;1.60;;
73693;SDS011;61997;53.974;11.670;2023-11-22T13:13:25;2.53;;;1.50;;
73693;SDS011;61997;53.974;11.670;2023-11-22T13:15:51;3.95;;;1.58;;
73693;SDS011;61997;53.974;11.670;2023-11-22T13:18:17;3.25;;;2.35;;
73693;SDS011;61997;53.974;11.670;2023-11-22T13:20:43;2.75;;;1.60;;
73693;SDS011;61997;53.974;11.670;2023-11-22T13:23:29;3.10;;;1.60;;
73693;SDS011;61997;53.974;11.670;2023-11-22T13:26:01;3.13;;;2.00;;
73693;SDS011;61997;53.974;11.670;2023-11-22T13:30:52;3.72;;;1.60;;
73693;SDS011;61997;53.974;11.670;2023-11-22T13:33:19;3.20;;;1.60;;
73693;SDS011;61997;53.974;11.670;2023-11-22T13:35:45;2.63;;;1.50;;
73693;SDS011;61997;53.974;11.670;2023-11-22T13:38:12;4.07;;;1.95;;
73693;SDS011;61997;53.974;11.670;2023-11-22T13:40:38;2.70;;;1.42;;
73693;SDS011;61997;53.974;11.670;2023-11-22T13:43:05;2.75;;;1.55;;
73693;SDS011;61997;53.974;11.670;2023-11-22T13:45:32;3.50;;;1.60;;
73693;SDS011;61997;53.974;11.670;2023-11-22T13:48:00;2.17;;;1.25;;
73693;SDS011;61997;53.974;11.670;2023-11-22T13:50:29;2.55;;;1.45;;
73693;SDS011;61997;53.974;11.670;2023-11-22T13:52:55;2.25;;;1.30;;
73693;SDS011;61997;53.974;11.670;2023-11-22T13:55:21;2.75;;;1.70;;
73693;SDS011;61997;53.974;11.670;2023-11-22T13:57:50;2.97;;;1.60;;
73693;SDS011;61997;53.974;11.670;2023-11-22T14:00:17;4.22;;;1.58;;
73693;SDS011;61997;53.974;11.670;2023-11-22T14:02:45;2.38;;;1.10;;
73693;SDS011;61997;53.974;11.670;2023-11-22T14:05:12;3.30;;;1.73;;
73693;SDS011;61997;53.974;11.670;2023-11-22T14:07:38;3.22;;;1.73;;
73693;SDS011;61997;53.974;11.670;2023-11-22T14:10:05;3.80;;;1.40;;
73693;SDS011;61997;53.974;11.670;2023-11-22T14:12:32;2.83;;;1.15;;
73693;SDS011;61997;53.974;11.670;2023-11-22T14:14:58;2.85;;;1.50;;
73693;SDS011;61997;53.974;11.670;2023-11-22T14:17:30;3.08;;;1.45;;
73693;SDS011;61997;53.974;11.670;2023-11-22T14:19:56;2.38;;;1.55;;
73693;SDS011;61997;53.974;11.670;2023-11-22T14:22:23;2.22;;;1.63;;
73693;SDS011;61997;53.974;11.670;2023-11-22T14:24:49;2.33;;;1.08;;
73693;SDS011;61997;53.974;11.670;2023-11-22T14:27:18;2.70;;;1.20;;
73693;SDS011;61997;53.974;11.670;2023-11-22T14:29:44;2.50;;;1.30;;
73693;SDS011;61997;53.974;11.670;2023-11-22T14:32:18;2.85;;;1.15;;
73693;SDS011;61997;53.974;11.670;2023-11-22T14:34:44;3.45;;;1.50;;
73693;SDS011;61997;53.974;11.670;2023-11-22T14:37:10;3.65;;;1.38;;